createdAt,value
2019-02-28T00:00:06.621Z,4.88
2019-02-28T00:01:04.822Z,4.89
2019-02-28T00:02:04.795Z,4.86
2019-02-28T00:03:04.773Z,4.84
2019-02-28T00:04:04.755Z,4.88
2019-02-28T00:05:06.121Z,4.80
2019-02-28T00:06:04.707Z,4.85
2019-02-28T00:07:04.680Z,4.85
2019-02-28T00:08:04.659Z,4.78
2019-02-28T00:09:04.635Z,4.84
2019-02-28T00:10:04.609Z,4.72
2019-02-28T00:11:05.043Z,4.70
2019-02-28T00:12:04.565Z,4.80
2019-02-28T00:13:04.543Z,4.80
2019-02-28T00:14:04.519Z,4.78
2019-02-28T00:15:04.496Z,4.66
2019-02-28T00:16:04.472Z,4.73
2019-02-28T00:17:06.220Z,4.63
2019-02-28T00:18:04.427Z,4.65
2019-02-28T00:19:04.397Z,4.65
2019-02-28T00:20:04.377Z,4.65
2019-02-28T00:21:06.913Z,4.65
2019-02-28T00:22:04.335Z,4.66
2019-02-28T00:23:04.313Z,4.67
2019-02-28T00:24:04.287Z,4.80
2019-02-28T00:25:05.062Z,4.66
2019-02-28T00:26:04.237Z,4.69
2019-02-28T00:27:04.218Z,4.66
2019-02-28T00:28:04.189Z,4.62
2019-02-28T00:29:04.170Z,4.65
2019-02-28T00:30:06.043Z,4.67
2019-02-28T00:31:04.123Z,4.58
2019-02-28T00:32:04.098Z,4.66
2019-02-28T00:33:04.081Z,4.63
2019-02-28T00:34:05.369Z,4.60
2019-02-28T00:35:04.022Z,4.70
2019-02-28T00:36:04.005Z,4.72
2019-02-28T00:37:03.985Z,4.82
2019-02-28T00:38:03.966Z,4.85
2019-02-28T00:39:04.201Z,4.88
2019-02-28T00:40:06.656Z,5.02
2019-02-28T00:41:03.888Z,5.12
2019-02-28T00:42:03.863Z,5.18
2019-02-28T00:43:03.839Z,5.18
2019-02-28T00:44:04.474Z,5.33
2019-02-28T00:45:03.844Z,5.35
2019-02-28T00:46:03.770Z,5.33
2019-02-28T00:47:03.752Z,5.40
2019-02-28T00:48:03.725Z,5.45
2019-02-28T00:49:03.700Z,5.54
2019-02-28T00:50:03.678Z,5.56
2019-02-28T00:51:03.658Z,5.56
2019-02-28T00:52:03.627Z,5.56
2019-02-28T00:53:06.542Z,5.56
2019-02-28T00:54:03.585Z,5.56
2019-02-28T00:55:03.558Z,5.60
2019-02-28T00:56:03.536Z,5.61
2019-02-28T00:57:03.512Z,5.71
2019-02-28T00:58:03.486Z,5.61
2019-02-28T00:59:03.470Z,5.75
2019-02-28T01:00:05.550Z,5.89
2019-02-28T01:01:03.422Z,5.94
2019-02-28T01:02:03.397Z,6.00
2019-02-28T01:03:03.373Z,6.03
2019-02-28T01:04:03.349Z,6.08
2019-02-28T01:05:04.826Z,6.15
2019-02-28T01:06:03.305Z,6.18
2019-02-28T01:07:03.280Z,6.14
2019-02-28T01:08:03.255Z,6.12
2019-02-28T01:09:03.232Z,6.17
2019-02-28T01:10:04.539Z,6.19
2019-02-28T01:11:03.182Z,6.19
2019-02-28T01:12:03.162Z,6.14
2019-02-28T01:13:03.136Z,6.14
2019-02-28T01:14:03.117Z,6.08
2019-02-28T01:15:03.093Z,6.04
2019-02-28T01:16:03.069Z,5.83
2019-02-28T01:17:03.042Z,5.85
2019-02-28T01:18:03.022Z,5.82
2019-02-28T01:19:02.998Z,5.71
2019-02-28T01:20:02.979Z,5.75
2019-02-28T01:21:02.948Z,5.71
2019-02-28T01:22:02.930Z,5.74
2019-02-28T01:23:02.901Z,5.76
2019-02-28T01:24:02.881Z,5.58
2019-02-28T01:25:02.860Z,5.71
2019-02-28T01:26:02.833Z,5.74
2019-02-28T01:27:02.806Z,5.75
2019-02-28T01:28:02.791Z,5.71
2019-02-28T01:29:02.844Z,5.78
2019-02-28T01:30:02.741Z,5.86
2019-02-28T01:31:02.719Z,5.86
2019-02-28T01:32:02.696Z,5.83
2019-02-28T01:33:02.672Z,5.85
2019-02-28T01:34:02.648Z,5.86
2019-02-28T01:35:05.609Z,5.83
2019-02-28T01:36:02.600Z,5.90
2019-02-28T01:37:02.581Z,5.91
2019-02-28T01:38:02.555Z,5.97
2019-02-28T01:39:02.534Z,5.90
2019-02-28T01:40:04.327Z,5.91
2019-02-28T01:41:02.492Z,5.83
2019-02-28T01:42:02.457Z,5.79
2019-02-28T01:43:02.437Z,5.90
2019-02-28T01:44:02.833Z,5.91
2019-02-28T01:45:02.392Z,6.04
2019-02-28T01:46:02.364Z,6.06
2019-02-28T01:47:02.345Z,6.11
2019-02-28T01:48:02.319Z,6.19
2019-02-28T01:49:02.299Z,6.17
2019-02-28T01:50:02.275Z,6.25
2019-02-28T01:51:02.252Z,6.15
2019-02-28T01:52:02.226Z,6.11
2019-02-28T01:53:02.208Z,6.06
2019-02-28T01:54:02.183Z,6.00
2019-02-28T01:55:02.160Z,5.96
2019-02-28T01:56:03.120Z,5.91
2019-02-28T01:57:02.112Z,5.91
2019-02-28T01:58:02.088Z,5.78
2019-02-28T01:59:02.070Z,5.79
2019-02-28T02:00:02.046Z,5.71
2019-02-28T02:01:02.014Z,5.71
2019-02-28T02:02:05.553Z,5.72
2019-02-28T02:03:01.971Z,5.63
2019-02-28T02:04:01.952Z,5.65
2019-02-28T02:05:01.927Z,5.61
2019-02-28T02:06:01.900Z,5.60
2019-02-28T02:07:01.877Z,5.57
2019-02-28T02:08:06.527Z,5.60
2019-02-28T02:09:01.825Z,5.61
2019-02-28T02:10:01.808Z,5.60
2019-02-28T02:11:01.783Z,5.57
2019-02-28T02:12:01.764Z,5.58
2019-02-28T02:13:03.247Z,5.49
2019-02-28T02:14:01.713Z,5.49
2019-02-28T02:15:01.689Z,5.51
2019-02-28T02:16:01.663Z,5.53
2019-02-28T02:17:01.982Z,5.57
2019-02-28T02:18:01.621Z,5.63
2019-02-28T02:19:01.600Z,5.82
2019-02-28T02:20:01.575Z,5.89
2019-02-28T02:21:01.551Z,5.90
2019-02-28T02:22:01.530Z,6.00
2019-02-28T02:23:01.505Z,5.91
2019-02-28T02:24:01.481Z,6.04
2019-02-28T02:25:03.143Z,6.08
2019-02-28T02:26:01.435Z,6.12
2019-02-28T02:27:01.407Z,6.18
2019-02-28T02:28:01.388Z,6.14
2019-02-28T02:29:01.924Z,6.06
2019-02-28T02:30:01.401Z,6.04
2019-02-28T02:31:01.325Z,6.08
2019-02-28T02:32:02.603Z,6.09
2019-02-28T02:33:01.271Z,6.01
2019-02-28T02:34:01.270Z,5.94
2019-02-28T02:35:05.978Z,5.90
2019-02-28T02:36:01.207Z,5.90
2019-02-28T02:37:01.175Z,5.79
2019-02-28T02:38:03.507Z,5.83
2019-02-28T02:39:01.127Z,5.89
2019-02-28T02:40:01.138Z,5.86
2019-02-28T02:41:01.192Z,5.93
2019-02-28T02:42:01.063Z,5.81
2019-02-28T02:43:01.033Z,5.85
2019-02-28T02:44:01.037Z,5.81
2019-02-28T02:45:05.111Z,5.78
2019-02-28T02:46:00.967Z,5.83
2019-02-28T02:47:00.942Z,5.74
2019-02-28T02:48:05.164Z,5.85
2019-02-28T02:49:00.899Z,5.90
2019-02-28T02:50:00.874Z,5.93
2019-02-28T02:51:00.847Z,5.85
2019-02-28T02:52:00.826Z,5.82
2019-02-28T02:53:05.066Z,5.67
2019-02-28T02:54:00.779Z,5.65
2019-02-28T02:55:00.757Z,5.60
2019-02-28T02:56:04.095Z,5.61
2019-02-28T02:57:00.705Z,5.57
2019-02-28T02:58:00.698Z,5.49
2019-02-28T02:59:02.134Z,5.53
2019-02-28T03:00:00.649Z,5.54
2019-02-28T03:01:00.617Z,5.53
2019-02-28T03:02:00.605Z,5.53
2019-02-28T03:03:00.569Z,5.56
2019-02-28T03:04:00.547Z,5.53
2019-02-28T03:05:00.521Z,5.45
2019-02-28T03:06:00.499Z,5.38
2019-02-28T03:07:00.501Z,5.35
2019-02-28T03:08:01.128Z,5.35
2019-02-28T03:09:00.428Z,5.22
2019-02-28T03:10:00.433Z,5.22
2019-02-28T03:11:00.378Z,5.15
2019-02-28T03:12:00.364Z,5.06
2019-02-28T03:13:04.519Z,5.12
2019-02-28T03:14:00.312Z,5.09
2019-02-28T03:15:00.511Z,5.07
2019-02-28T03:16:00.541Z,5.07
2019-02-28T03:17:00.241Z,5.09
2019-02-28T03:18:00.216Z,5.06
2019-02-28T03:19:00.199Z,5.06
2019-02-28T03:20:00.705Z,5.06
2019-02-28T03:21:00.152Z,5.04
2019-02-28T03:22:00.125Z,5.02
2019-02-28T03:23:02.232Z,5.03
2019-02-28T03:24:00.081Z,5.02
2019-02-28T03:25:00.059Z,5.04
2019-02-28T03:26:05.284Z,4.84
2019-02-28T03:27:00.014Z,4.89
2019-02-28T03:27:59.982Z,4.89
2019-02-28T03:28:59.964Z,4.89
2019-02-28T03:29:59.937Z,4.92
2019-02-28T03:31:11.989Z,4.88
2019-02-28T03:32:00.029Z,4.85
2019-02-28T03:32:59.866Z,4.78
2019-02-28T03:34:10.160Z,4.78
2019-02-28T03:34:59.887Z,4.80
2019-02-28T03:35:59.794Z,4.72
2019-02-28T03:36:59.773Z,4.65
2019-02-28T03:37:59.752Z,4.59
2019-02-28T03:38:59.727Z,4.60
2019-02-28T03:40:04.335Z,4.52
2019-02-28T03:40:59.678Z,4.62
2019-02-28T03:41:59.659Z,4.69
2019-02-28T03:43:05.270Z,4.67
2019-02-28T03:43:59.613Z,4.67
2019-02-28T03:44:59.590Z,4.77
2019-02-28T03:45:59.563Z,4.77
2019-02-28T03:46:59.536Z,4.80
2019-02-28T03:47:59.869Z,4.84
2019-02-28T03:48:59.491Z,4.92
2019-02-28T03:49:59.468Z,5.06
2019-02-28T03:50:59.450Z,5.24
2019-02-28T03:52:05.007Z,5.25
2019-02-28T03:52:59.394Z,5.22
2019-02-28T03:53:59.373Z,5.25
2019-02-28T03:55:03.204Z,5.17
2019-02-28T03:55:59.328Z,5.25
2019-02-28T03:56:59.311Z,5.15
2019-02-28T03:58:03.884Z,5.13
2019-02-28T03:58:59.257Z,5.09
2019-02-28T03:59:59.342Z,5.07
2019-02-28T04:00:59.212Z,5.03
2019-02-28T04:01:59.187Z,5.09
2019-02-28T04:02:59.299Z,5.09
2019-02-28T04:03:59.141Z,4.97
2019-02-28T04:04:59.113Z,5.09
2019-02-28T04:06:03.350Z,5.13
2019-02-28T04:06:59.069Z,5.10
2019-02-28T04:07:59.050Z,5.13
2019-02-28T04:09:07.292Z,5.12
2019-02-28T04:09:58.997Z,5.17
2019-02-28T04:10:58.982Z,5.18
2019-02-28T04:11:58.950Z,5.09
2019-02-28T04:12:58.934Z,5.09
2019-02-28T04:13:58.906Z,5.13
2019-02-28T04:14:58.882Z,4.96
2019-02-28T04:16:08.380Z,4.96
2019-02-28T04:16:58.833Z,4.99
2019-02-28T04:17:58.811Z,4.80
2019-02-28T04:18:58.790Z,4.84
2019-02-28T04:20:00.053Z,4.88
2019-02-28T04:20:58.745Z,4.84
2019-02-28T04:21:58.713Z,4.88
2019-02-28T04:23:00.103Z,5.03
2019-02-28T04:23:58.669Z,5.02
2019-02-28T04:24:58.644Z,5.07
2019-02-28T04:25:58.645Z,5.07
2019-02-28T04:27:05.891Z,5.13
2019-02-28T04:27:58.578Z,5.27
2019-02-28T04:28:58.555Z,5.22
2019-02-28T04:30:06.381Z,5.13
2019-02-28T04:30:58.505Z,5.15
2019-02-28T04:31:58.483Z,5.17
2019-02-28T04:33:01.411Z,5.12
2019-02-28T04:33:58.433Z,5.25
2019-02-28T04:34:58.407Z,5.12
2019-02-28T04:36:00.638Z,5.20
2019-02-28T04:36:58.361Z,5.25
2019-02-28T04:37:58.343Z,5.18
2019-02-28T04:38:58.324Z,5.24
2019-02-28T04:39:58.298Z,5.15
2019-02-28T04:40:59.134Z,5.15
2019-02-28T04:41:58.251Z,5.17
2019-02-28T04:42:58.221Z,5.20
2019-02-28T04:43:58.197Z,5.30
2019-02-28T04:44:58.173Z,5.13
2019-02-28T04:45:58.504Z,5.15
2019-02-28T04:46:58.125Z,5.13
2019-02-28T04:47:58.105Z,5.10
2019-02-28T04:48:58.095Z,5.15
2019-02-28T04:49:58.069Z,5.25
2019-02-28T04:50:58.033Z,5.35
2019-02-28T04:51:58.017Z,5.39
2019-02-28T04:52:57.987Z,5.39
2019-02-28T04:53:57.963Z,5.40
2019-02-28T04:54:59.395Z,5.49
2019-02-28T04:55:57.915Z,5.61
2019-02-28T04:56:57.892Z,5.65
2019-02-28T04:57:57.874Z,5.78
2019-02-28T04:58:59.545Z,5.86
2019-02-28T04:59:57.832Z,5.90
2019-02-28T05:00:57.794Z,6.01
2019-02-28T05:01:57.775Z,6.04
2019-02-28T05:02:57.749Z,6.06
2019-02-28T05:03:59.211Z,6.08
2019-02-28T05:04:57.702Z,6.12
2019-02-28T05:05:57.679Z,6.04
2019-02-28T05:06:57.656Z,6.12
2019-02-28T05:07:57.634Z,6.09
2019-02-28T05:08:57.606Z,6.03
2019-02-28T05:09:57.586Z,6.12
2019-02-28T05:10:57.563Z,6.21
2019-02-28T05:11:57.543Z,6.43
2019-02-28T05:12:57.514Z,6.51
2019-02-28T05:13:57.500Z,6.55
2019-02-28T05:14:58.474Z,6.55
2019-02-28T05:15:57.446Z,6.55
2019-02-28T05:16:57.419Z,6.69
2019-02-28T05:17:57.397Z,6.64
2019-02-28T05:18:58.262Z,6.76
2019-02-28T05:19:57.353Z,6.76
2019-02-28T05:20:57.324Z,6.74
2019-02-28T05:21:57.304Z,6.64
2019-02-28T05:22:59.266Z,6.70
2019-02-28T05:23:57.256Z,6.77
2019-02-28T05:24:57.232Z,6.74
2019-02-28T05:25:57.210Z,6.80
2019-02-28T05:26:59.877Z,6.76
2019-02-28T05:27:57.166Z,6.76
2019-02-28T05:28:57.147Z,6.71
2019-02-28T05:29:57.119Z,6.67
2019-02-28T05:30:57.092Z,6.70
2019-02-28T05:31:58.085Z,6.71
2019-02-28T05:32:57.048Z,6.69
2019-02-28T05:33:57.024Z,6.56
2019-02-28T05:34:57.003Z,6.62
2019-02-28T05:35:57.131Z,6.58
2019-02-28T05:36:56.954Z,6.58
2019-02-28T05:37:56.936Z,6.66
2019-02-28T05:38:57.340Z,6.73
2019-02-28T05:39:56.886Z,6.77
2019-02-28T05:40:56.864Z,6.73
2019-02-28T05:41:56.836Z,6.88
2019-02-28T05:42:58.416Z,6.94
2019-02-28T05:43:56.796Z,6.88
2019-02-28T05:44:56.770Z,6.97
2019-02-28T05:45:56.740Z,7.02
2019-02-28T05:46:58.107Z,7.12
2019-02-28T05:47:56.697Z,7.13
2019-02-28T05:48:56.678Z,7.09
2019-02-28T05:49:56.652Z,7.09
2019-02-28T05:50:56.629Z,7.12
2019-02-28T05:51:59.194Z,7.15
2019-02-28T05:52:56.582Z,7.12
2019-02-28T05:53:56.554Z,7.16
2019-02-28T05:54:57.863Z,7.12
2019-02-28T05:55:59.879Z,7.17
2019-02-28T05:56:56.489Z,7.10
2019-02-28T05:57:56.465Z,7.27
2019-02-28T05:58:56.441Z,7.17
2019-02-28T06:00:01.347Z,7.09
2019-02-28T06:00:56.396Z,7.23
2019-02-28T06:01:56.370Z,7.10
2019-02-28T06:02:58.230Z,7.17
2019-02-28T06:03:56.323Z,7.15
2019-02-28T06:04:56.307Z,7.10
2019-02-28T06:05:56.278Z,7.09
2019-02-28T06:06:56.252Z,7.15
2019-02-28T06:07:56.234Z,7.13
2019-02-28T06:08:56.204Z,7.07
2019-02-28T06:09:56.183Z,7.07
2019-02-28T06:11:00.668Z,7.24
2019-02-28T06:11:56.143Z,7.23
2019-02-28T06:12:56.121Z,7.17
2019-02-28T06:13:56.098Z,7.21
2019-02-28T06:15:02.216Z,7.21
2019-02-28T06:15:56.047Z,7.24
2019-02-28T06:16:56.025Z,7.24
2019-02-28T06:17:55.999Z,7.31
2019-02-28T06:18:55.975Z,7.27
2019-02-28T06:19:55.951Z,7.28
2019-02-28T06:20:55.930Z,7.23
2019-02-28T06:21:56.340Z,7.24
2019-02-28T06:22:55.883Z,7.30
2019-02-28T06:23:55.860Z,7.35
2019-02-28T06:24:55.841Z,7.30
2019-02-28T06:25:59.378Z,7.32
2019-02-28T06:26:57.016Z,7.40
2019-02-28T06:27:55.765Z,7.34
2019-02-28T06:28:55.746Z,7.31
2019-02-28T06:29:55.721Z,7.31
2019-02-28T06:30:55.718Z,7.39
2019-02-28T06:31:55.681Z,7.32
2019-02-28T06:32:59.201Z,7.31
2019-02-28T06:33:55.628Z,7.24
2019-02-28T06:34:55.603Z,7.25
2019-02-28T06:35:55.584Z,7.35
2019-02-28T06:36:55.556Z,7.40
2019-02-28T06:37:55.534Z,7.48
2019-02-28T06:38:55.586Z,7.49
2019-02-28T06:39:58.591Z,7.53
2019-02-28T06:40:55.468Z,7.52
2019-02-28T06:41:55.438Z,7.63
2019-02-28T06:42:55.925Z,7.69
2019-02-28T06:43:55.397Z,7.72
2019-02-28T06:44:55.374Z,7.67
2019-02-28T06:45:55.351Z,7.82
2019-02-28T06:46:55.334Z,7.86
2019-02-28T06:47:55.307Z,7.89
2019-02-28T06:49:01.628Z,8.02
2019-02-28T06:49:55.256Z,8.10
2019-02-28T06:50:55.234Z,8.12
2019-02-28T06:51:55.224Z,8.26
2019-02-28T06:52:56.393Z,8.19
2019-02-28T06:53:55.164Z,8.19
2019-02-28T06:54:55.161Z,8.20
2019-02-28T06:55:55.122Z,8.33
2019-02-28T06:56:55.328Z,8.19
2019-02-28T06:57:55.073Z,8.38
2019-02-28T06:58:55.049Z,8.38
2019-02-28T06:59:55.029Z,8.41
2019-02-28T07:00:55.010Z,8.45
2019-02-28T07:01:57.587Z,8.58
2019-02-28T07:02:54.961Z,8.65
2019-02-28T07:03:54.940Z,8.58
2019-02-28T07:04:54.912Z,8.74
2019-02-28T07:05:57.605Z,8.73
2019-02-28T07:06:54.867Z,8.81
2019-02-28T07:07:54.845Z,8.81
2019-02-28T07:08:54.823Z,8.83
2019-02-28T07:09:54.799Z,8.77
2019-02-28T07:10:54.776Z,8.83
2019-02-28T07:11:55.752Z,8.87
2019-02-28T07:12:54.735Z,8.92
2019-02-28T07:13:54.711Z,8.87
2019-02-28T07:14:54.689Z,8.99
2019-02-28T07:15:55.618Z,9.08
2019-02-28T07:16:54.639Z,9.13
2019-02-28T07:17:54.621Z,9.11
2019-02-28T07:18:54.593Z,9.20
2019-02-28T07:19:54.573Z,9.11
2019-02-28T07:20:54.552Z,9.18
2019-02-28T07:21:54.523Z,9.23
2019-02-28T07:22:55.694Z,9.36
2019-02-28T07:23:54.483Z,9.32
2019-02-28T07:24:54.463Z,9.33
2019-02-28T07:25:54.443Z,9.40
2019-02-28T07:26:54.417Z,9.53
2019-02-28T07:27:54.396Z,9.58
2019-02-28T07:28:54.371Z,9.56
2019-02-28T07:29:54.347Z,9.68
2019-02-28T07:30:54.341Z,9.68
2019-02-28T07:32:00.026Z,9.75
2019-02-28T07:32:54.279Z,9.86
2019-02-28T07:33:54.263Z,9.83
2019-02-28T07:34:55.001Z,9.79
2019-02-28T07:35:54.215Z,9.81
2019-02-28T07:36:54.189Z,9.96
2019-02-28T07:37:54.631Z,9.99
2019-02-28T07:38:54.148Z,10.01
2019-02-28T07:39:54.124Z,9.99
2019-02-28T07:40:54.112Z,10.05
2019-02-28T07:41:54.082Z,10.08
2019-02-28T07:42:54.061Z,10.17
2019-02-28T07:43:54.036Z,10.22
2019-02-28T07:44:58.000Z,10.36
2019-02-28T07:45:53.997Z,10.36
2019-02-28T07:46:53.972Z,10.34
2019-02-28T07:47:53.942Z,10.44
2019-02-28T07:48:53.932Z,10.45
2019-02-28T07:49:53.905Z,10.45
2019-02-28T07:50:53.882Z,10.53
2019-02-28T07:51:56.929Z,10.56
2019-02-28T07:52:53.838Z,10.66
2019-02-28T07:53:53.822Z,10.56
2019-02-28T07:54:55.789Z,10.55
2019-02-28T07:55:53.783Z,10.64
2019-02-28T07:56:53.762Z,10.64
2019-02-28T07:57:56.468Z,10.68
2019-02-28T07:58:53.710Z,10.86
2019-02-28T07:59:53.695Z,10.91
2019-02-28T08:00:53.736Z,11.02
2019-02-28T08:01:53.649Z,11.22
2019-02-28T08:02:53.626Z,11.42
2019-02-28T08:03:53.605Z,11.76
2019-02-28T08:04:54.545Z,12.41
2019-02-28T08:05:53.560Z,12.75
2019-02-28T08:06:54.866Z,13.17
2019-02-28T08:07:53.539Z,13.62
2019-02-28T08:08:53.498Z,13.85
2019-02-28T08:09:53.485Z,14.32
2019-02-28T08:10:53.453Z,14.64
2019-02-28T08:11:55.143Z,14.78
2019-02-28T08:12:53.418Z,15.20
2019-02-28T08:13:55.494Z,15.53
2019-02-28T08:14:53.381Z,15.57
2019-02-28T08:15:56.896Z,15.71
2019-02-28T08:16:53.336Z,16.11
2019-02-28T08:17:53.314Z,16.21
2019-02-28T08:18:53.295Z,16.12
2019-02-28T08:19:53.282Z,15.92
2019-02-28T08:20:53.256Z,16.33
2019-02-28T08:21:53.236Z,16.21
2019-02-28T08:22:56.823Z,16.38
2019-02-28T08:23:53.197Z,16.35
2019-02-28T08:24:53.180Z,16.43
2019-02-28T08:25:53.164Z,16.31
2019-02-28T08:26:53.651Z,16.53
2019-02-28T08:27:53.125Z,16.60
2019-02-28T08:28:53.102Z,16.86
2019-02-28T08:29:53.084Z,16.97
2019-02-28T08:30:55.368Z,16.91
2019-02-28T08:31:53.056Z,16.86
2019-02-28T08:32:53.035Z,17.07
2019-02-28T08:33:53.012Z,17.33
2019-02-28T08:34:55.510Z,17.11
2019-02-28T08:35:52.976Z,17.11
2019-02-28T08:36:52.958Z,17.25
2019-02-28T08:37:57.019Z,17.58
2019-02-28T08:38:52.922Z,17.99
2019-02-28T08:39:52.905Z,18.12
2019-02-28T08:40:52.892Z,17.96
2019-02-28T08:41:52.896Z,18.35
2019-02-28T08:42:52.863Z,18.36
2019-02-28T08:43:52.842Z,18.75
2019-02-28T08:44:58.090Z,18.36
2019-02-28T08:45:52.807Z,18.08
2019-02-28T08:46:52.792Z,17.86
2019-02-28T08:47:56.718Z,18.02
2019-02-28T08:48:52.763Z,18.00
2019-02-28T08:49:52.740Z,18.48
2019-02-28T08:50:55.711Z,18.80
2019-02-28T08:51:52.714Z,18.50
2019-02-28T08:52:52.702Z,18.33
2019-02-28T08:53:52.688Z,18.27
2019-02-28T08:54:52.666Z,18.30
2019-02-28T08:55:52.657Z,18.37
2019-02-28T08:56:52.640Z,18.81
2019-02-28T08:57:56.976Z,19.00
2019-02-28T08:58:52.607Z,19.39
2019-02-28T08:59:56.240Z,19.40
2019-02-28T09:00:52.590Z,19.47
2019-02-28T09:01:52.570Z,19.78
2019-02-28T09:02:53.667Z,19.77
2019-02-28T09:03:52.539Z,19.71
2019-02-28T09:04:52.524Z,19.65
2019-02-28T09:05:52.510Z,19.56
2019-02-28T09:06:52.498Z,19.06
2019-02-28T09:07:52.491Z,18.78
2019-02-28T09:08:52.469Z,18.58
2019-02-28T09:09:52.456Z,18.84
2019-02-28T09:10:52.449Z,18.78
2019-02-28T09:11:52.764Z,19.04
2019-02-28T09:12:52.419Z,19.25
2019-02-28T09:13:52.404Z,19.37
2019-02-28T09:14:55.334Z,19.00
2019-02-28T09:15:52.384Z,18.48
2019-02-28T09:16:52.369Z,17.72
2019-02-28T09:17:52.351Z,17.55
2019-02-28T09:18:52.341Z,17.08
2019-02-28T09:19:52.329Z,16.78
2019-02-28T09:20:52.314Z,16.71
2019-02-28T09:21:52.838Z,16.61
2019-02-28T09:22:52.308Z,16.64
2019-02-28T09:23:52.275Z,16.63
2019-02-28T09:24:52.261Z,16.82
2019-02-28T09:25:53.405Z,17.22
2019-02-28T09:26:52.237Z,17.52
2019-02-28T09:27:52.223Z,17.58
2019-02-28T09:28:52.214Z,17.81
2019-02-28T09:29:54.840Z,17.93
2019-02-28T09:30:52.185Z,18.17
2019-02-28T09:31:52.176Z,18.51
2019-02-28T09:32:52.157Z,18.58
2019-02-28T09:33:52.146Z,18.65
2019-02-28T09:34:52.132Z,18.90
2019-02-28T09:35:52.121Z,19.28
2019-02-28T09:36:55.267Z,19.02
2019-02-28T09:37:52.096Z,19.32
2019-02-28T09:38:57.054Z,19.18
2019-02-28T09:39:54.257Z,19.44
2019-02-28T09:40:52.064Z,19.39
2019-02-28T09:41:52.061Z,19.29
2019-02-28T09:42:52.056Z,19.59
2019-02-28T09:43:52.029Z,20.03
2019-02-28T09:44:52.012Z,20.24
2019-02-28T09:45:52.007Z,20.43
2019-02-28T09:46:51.993Z,20.74
2019-02-28T09:47:51.983Z,20.92
2019-02-28T09:48:51.976Z,20.85
2019-02-28T09:49:51.963Z,20.97
2019-02-28T09:50:57.914Z,21.32
2019-02-28T09:51:51.943Z,21.35
2019-02-28T09:52:51.930Z,21.68
2019-02-28T09:53:51.920Z,21.27
2019-02-28T09:54:51.906Z,21.19
2019-02-28T09:55:51.898Z,21.17
2019-02-28T09:56:51.886Z,21.88
2019-02-28T09:57:54.832Z,22.06
2019-02-28T09:58:51.867Z,22.20
2019-02-28T09:59:51.857Z,22.57
2019-02-28T10:00:51.849Z,22.57
2019-02-28T10:02:00.932Z,23.07
2019-02-28T10:02:53.056Z,22.95
2019-02-28T10:03:52.173Z,22.33
2019-02-28T10:04:51.821Z,22.45
2019-02-28T10:05:51.803Z,22.46
2019-02-28T10:06:52.283Z,22.76
2019-02-28T10:07:51.784Z,22.45
2019-02-28T10:08:51.779Z,22.03
2019-02-28T10:09:51.775Z,21.94
2019-02-28T10:10:52.509Z,21.84
2019-02-28T10:11:51.762Z,21.91
2019-02-28T10:12:51.747Z,21.86
2019-02-28T10:13:53.181Z,21.71
2019-02-28T10:14:52.078Z,21.42
2019-02-28T10:15:51.724Z,21.47
2019-02-28T10:16:52.683Z,20.97
2019-02-28T10:17:51.700Z,20.72
2019-02-28T10:18:51.697Z,20.82
2019-02-28T10:19:52.249Z,21.03
2019-02-28T10:20:51.678Z,21.03
2019-02-28T10:21:52.351Z,21.19
2019-02-28T10:22:51.661Z,21.46
2019-02-28T10:23:53.418Z,21.12
2019-02-28T10:24:51.643Z,20.48
2019-02-28T10:25:51.638Z,20.54
2019-02-28T10:26:52.380Z,20.59
2019-02-28T10:27:51.622Z,20.06
2019-02-28T10:28:51.610Z,20.35
2019-02-28T10:29:51.609Z,20.16
2019-02-28T10:30:51.599Z,20.20
2019-02-28T10:31:51.587Z,20.39
2019-02-28T10:32:51.578Z,20.67
2019-02-28T10:33:52.494Z,20.84
2019-02-28T10:34:51.562Z,20.84
2019-02-28T10:35:51.548Z,20.57
2019-02-28T10:36:51.540Z,20.20
2019-02-28T10:37:57.197Z,20.29
2019-02-28T10:38:51.521Z,20.05
2019-02-28T10:39:51.521Z,19.83
2019-02-28T10:40:52.492Z,19.55
2019-02-28T10:41:51.492Z,19.40
2019-02-28T10:42:51.486Z,19.47
2019-02-28T10:43:55.602Z,19.43
2019-02-28T10:44:51.463Z,19.56
2019-02-28T10:45:51.458Z,19.95
2019-02-28T10:46:53.953Z,20.26
2019-02-28T10:47:51.434Z,20.42
2019-02-28T10:48:51.423Z,20.72
2019-02-28T10:49:51.411Z,20.61
2019-02-28T10:50:51.408Z,20.77
2019-02-28T10:51:51.394Z,20.74
2019-02-28T10:52:51.383Z,20.74
2019-02-28T10:53:51.375Z,20.79
2019-02-28T10:54:51.366Z,20.84
2019-02-28T10:55:54.354Z,20.88
2019-02-28T10:56:51.346Z,20.76
2019-02-28T10:57:51.336Z,20.66
2019-02-28T10:58:51.321Z,20.43
2019-02-28T10:59:51.311Z,20.18
2019-02-28T11:00:51.303Z,20.11
2019-02-28T11:01:51.296Z,20.23
2019-02-28T11:02:54.166Z,20.05
2019-02-28T11:03:51.278Z,19.80
2019-02-28T11:04:51.258Z,19.95
2019-02-28T11:05:54.305Z,19.78
2019-02-28T11:06:51.238Z,19.59
2019-02-28T11:07:51.229Z,19.66
2019-02-28T11:08:51.218Z,19.61
2019-02-28T11:09:51.206Z,19.59
2019-02-28T11:10:51.198Z,19.81
2019-02-28T11:11:51.186Z,19.96
2019-02-28T11:12:51.178Z,20.01
2019-02-28T11:13:51.164Z,20.06
2019-02-28T11:14:51.150Z,20.13
2019-02-28T11:15:51.143Z,20.14
2019-02-28T11:16:51.130Z,19.95
2019-02-28T11:17:51.117Z,19.84
2019-02-28T11:18:51.113Z,19.78
2019-02-28T11:19:52.001Z,19.62
2019-02-28T11:20:51.087Z,19.51
2019-02-28T11:21:51.079Z,19.78
2019-02-28T11:22:51.066Z,19.81
2019-02-28T11:23:51.060Z,19.94
2019-02-28T11:24:51.050Z,20.02
2019-02-28T11:25:52.972Z,20.17
2019-02-28T11:26:51.029Z,20.08
2019-02-28T11:27:53.747Z,19.84
2019-02-28T11:28:51.003Z,19.83
2019-02-28T11:29:50.997Z,19.47
2019-02-28T11:30:50.989Z,19.54
2019-02-28T11:31:54.184Z,19.63
2019-02-28T11:32:50.959Z,19.65
2019-02-28T11:33:50.950Z,19.84
2019-02-28T11:34:50.948Z,19.81
2019-02-28T11:35:50.928Z,19.68
2019-02-28T11:36:50.919Z,19.58
2019-02-28T11:37:50.917Z,19.47
2019-02-28T11:38:52.558Z,19.36
2019-02-28T11:39:50.885Z,19.04
2019-02-28T11:40:57.046Z,19.10
2019-02-28T11:41:52.712Z,19.10
2019-02-28T11:42:50.849Z,19.11
2019-02-28T11:43:50.846Z,18.87
2019-02-28T11:44:50.835Z,19.00
2019-02-28T11:45:50.818Z,19.02
2019-02-28T11:46:50.817Z,19.29
2019-02-28T11:47:50.794Z,19.41
2019-02-28T11:48:51.011Z,19.32
2019-02-28T11:49:50.775Z,19.44
2019-02-28T11:50:50.765Z,19.37
2019-02-28T11:51:53.066Z,19.16
2019-02-28T11:52:50.741Z,19.13
2019-02-28T11:53:50.728Z,18.98
2019-02-28T11:54:50.719Z,19.07
2019-02-28T11:55:53.350Z,19.04
2019-02-28T11:56:50.699Z,19.02
2019-02-28T11:57:50.683Z,19.00
2019-02-28T11:58:51.701Z,18.95
2019-02-28T11:59:50.660Z,18.87
2019-02-28T12:00:50.647Z,18.90
2019-02-28T12:01:50.633Z,18.84
2019-02-28T12:02:53.298Z,18.98
2019-02-28T12:03:50.613Z,19.00
2019-02-28T12:04:50.603Z,19.13
2019-02-28T12:05:51.351Z,19.16
2019-02-28T12:06:50.579Z,19.25
2019-02-28T12:07:50.568Z,19.40
2019-02-28T12:08:50.559Z,19.41
2019-02-28T12:09:51.503Z,19.28
2019-02-28T12:10:50.534Z,19.33
2019-02-28T12:11:50.521Z,19.37
2019-02-28T12:12:50.512Z,19.61
2019-02-28T12:13:51.691Z,19.71
2019-02-28T12:14:50.487Z,19.37
2019-02-28T12:15:50.473Z,19.29
2019-02-28T12:16:53.550Z,19.44
2019-02-28T12:17:50.455Z,19.59
2019-02-28T12:18:50.441Z,19.76
2019-02-28T12:19:50.832Z,19.71
2019-02-28T12:20:50.417Z,19.71
2019-02-28T12:21:50.400Z,19.80
2019-02-28T12:22:50.390Z,19.65
2019-02-28T12:23:50.383Z,19.69
2019-02-28T12:24:50.371Z,19.81
2019-02-28T12:25:50.376Z,19.77
2019-02-28T12:26:52.600Z,19.59
2019-02-28T12:27:50.342Z,19.48
2019-02-28T12:28:50.322Z,19.21
2019-02-28T12:29:50.309Z,18.94
2019-02-28T12:30:50.307Z,18.85
2019-02-28T12:31:50.288Z,18.73
2019-02-28T12:32:50.306Z,18.78
2019-02-28T12:33:50.267Z,18.78
2019-02-28T12:34:50.254Z,18.87
2019-02-28T12:35:50.246Z,18.92
2019-02-28T12:36:50.288Z,19.02
2019-02-28T12:37:50.218Z,18.98
2019-02-28T12:38:50.206Z,19.16
2019-02-28T12:39:50.190Z,19.14
2019-02-28T12:40:50.190Z,19.16
2019-02-28T12:41:50.176Z,19.37
2019-02-28T12:42:50.158Z,19.33
2019-02-28T12:43:50.149Z,19.37
2019-02-28T12:44:50.133Z,19.33
2019-02-28T12:45:50.122Z,19.26
2019-02-28T12:46:50.109Z,18.94
2019-02-28T12:47:50.098Z,18.84
2019-02-28T12:48:50.091Z,18.45
2019-02-28T12:49:50.068Z,18.35
2019-02-28T12:50:50.058Z,18.39
2019-02-28T12:51:50.046Z,18.27
2019-02-28T12:52:50.161Z,18.29
2019-02-28T12:53:50.027Z,18.15
2019-02-28T12:54:50.015Z,18.20
2019-02-28T12:55:50.001Z,18.27
2019-02-28T12:56:49.985Z,18.33
2019-02-28T12:57:51.639Z,17.87
2019-02-28T12:58:49.957Z,18.02
2019-02-28T12:59:49.950Z,17.75
2019-02-28T13:00:49.935Z,17.75
2019-02-28T13:01:49.924Z,17.81
2019-02-28T13:02:49.908Z,17.78
2019-02-28T13:03:54.649Z,17.77
2019-02-28T13:04:49.883Z,17.86
2019-02-28T13:05:49.876Z,17.84
2019-02-28T13:06:49.858Z,17.81